Metlakatla, Alaska
Current Conditions -  °F | °C
As of 10:36 PM on Sunday 21 Dec 2014 (Local Time) from PAMM Reporting Station
Broken Clouds Broken Clouds  
Wind Chill:   Ceiling: 4600
Heat Index:   Visibility: 10mi
Dew Point:   Wind: 13mph
Humidity: 76%   Direction: 260°W
Pressure: 29.82"   Gusts: NA
Location:  55.11°N, 131.58°W
Report Text: PAMM 220736Z AUTO 26011KT 10SM FEW026 SCT034 BKN046 07/03 A2982 RMK AO1
Loading
Personal Weather Stations






























Interactive Weather Map New forecast layout! Learn more

10-Day Weather Forecast

Advertisements
Track Severe Weather on mobile